sensor_id;sensor_type;location;lat;lon;timestamp;P1;durP1;ratioP1;P2;durP2;ratioP2
50651;SDS011;61429;52.086;5.240;2022-07-06T00:00:28;5.4;;;2.0;;
50651;SDS011;61429;52.086;5.240;2022-07-06T00:02:15;5.4;;;2.21;;
50651;SDS011;61429;52.086;5.240;2022-07-06T00:04:02;3.8;;;2.1;;
50651;SDS011;61429;52.086;5.240;2022-07-06T00:05:49;3.4;;;1.8;;
50651;SDS011;61429;52.086;5.240;2022-07-06T00:07:35;3.7;;;2.0;;
50651;SDS011;61429;52.086;5.240;2022-07-06T00:11:07;4.2;;;1.9;;
50651;SDS011;61429;52.086;5.240;2022-07-06T00:12:53;4.0;;;2.0;;
50651;SDS011;61429;52.086;5.240;2022-07-06T00:14:40;5.8;;;2.21;;
50651;SDS011;61429;52.086;5.240;2022-07-06T00:16:27;3.7;;;2.1;;
50651;SDS011;61429;52.086;5.240;2022-07-06T00:18:14;4.1;;;1.8;;
50651;SDS011;61429;52.086;5.240;2022-07-06T00:21:46;5.11;;;2.0;;
50651;SDS011;61429;52.086;5.240;2022-07-06T00:23:32;3.7;;;1.9;;
50651;SDS011;61429;52.086;5.240;2022-07-06T00:25:20;4.3;;;1.9;;
50651;SDS011;61429;52.086;5.240;2022-07-06T00:27:06;3.5;;;1.8;;
50651;SDS011;61429;52.086;5.240;2022-07-06T00:28:53;3.0;;;1.8;;
50651;SDS011;61429;52.086;5.240;2022-07-06T00:30:40;3.1;;;1.9;;
50651;SDS011;61429;52.086;5.240;2022-07-06T00:34:14;4.8;;;2.0;;
50651;SDS011;61429;52.086;5.240;2022-07-06T00:36:01;5.5;;;2.5;;
50651;SDS011;61429;52.086;5.240;2022-07-06T00:37:48;4.8;;;2.1;;
50651;SDS011;61429;52.086;5.240;2022-07-06T00:39:34;3.7;;;2.1;;
50651;SDS011;61429;52.086;5.240;2022-07-06T00:41:20;5.2;;;2.1;;
50651;SDS011;61429;52.086;5.240;2022-07-06T00:43:06;4.61;;;2.1;;
50651;SDS011;61429;52.086;5.240;2022-07-06T00:46:40;4.3;;;2.21;;
50651;SDS011;61429;52.086;5.240;2022-07-06T00:48:26;5.7;;;2.21;;
50651;SDS011;61429;52.086;5.240;2022-07-06T00:50:18;3.6;;;2.1;;
50651;SDS011;61429;52.086;5.240;2022-07-06T00:52:05;4.3;;;2.1;;
50651;SDS011;61429;52.086;5.240;2022-07-06T00:55:44;4.1;;;2.1;;
50651;SDS011;61429;52.086;5.240;2022-07-06T00:59:17;3.7;;;2.0;;
50651;SDS011;61429;52.086;5.240;2022-07-06T01:01:04;4.2;;;2.0;;
50651;SDS011;61429;52.086;5.240;2022-07-06T01:02:51;3.7;;;2.1;;
50651;SDS011;61429;52.086;5.240;2022-07-06T01:04:39;4.1;;;2.0;;
50651;SDS011;61429;52.086;5.240;2022-07-06T01:06:25;3.3;;;2.0;;
50651;SDS011;61429;52.086;5.240;2022-07-06T01:09:59;3.4;;;2.0;;
50651;SDS011;61429;52.086;5.240;2022-07-06T01:11:48;2.9;;;1.9;;
50651;SDS011;61429;52.086;5.240;2022-07-06T01:13:34;3.8;;;2.1;;
50651;SDS011;61429;52.086;5.240;2022-07-06T01:15:21;3.4;;;2.1;;
50651;SDS011;61429;52.086;5.240;2022-07-06T01:17:11;3.6;;;2.0;;
50651;SDS011;61429;52.086;5.240;2022-07-06T01:18:59;4.0;;;2.0;;
50651;SDS011;61429;52.086;5.240;2022-07-06T01:22:31;3.5;;;2.1;;
50651;SDS011;61429;52.086;5.240;2022-07-06T01:24:18;3.8;;;1.9;;
50651;SDS011;61429;52.086;5.240;2022-07-06T01:26:04;3.8;;;2.21;;
50651;SDS011;61429;52.086;5.240;2022-07-06T01:27:50;3.7;;;1.8;;
50651;SDS011;61429;52.086;5.240;2022-07-06T01:29:36;4.3;;;2.4;;
50651;SDS011;61429;52.086;5.240;2022-07-06T01:31:23;5.9;;;2.4;;
50651;SDS011;61429;52.086;5.240;2022-07-06T01:34:58;5.6;;;2.31;;
50651;SDS011;61429;52.086;5.240;2022-07-06T01:36:45;4.7;;;2.1;;
50651;SDS011;61429;52.086;5.240;2022-07-06T01:38:32;4.8;;;2.4;;
50651;SDS011;61429;52.086;5.240;2022-07-06T01:40:29;4.2;;;2.31;;
50651;SDS011;61429;52.086;5.240;2022-07-06T01:42:17;3.4;;;2.1;;
50651;SDS011;61429;52.086;5.240;2022-07-06T01:44:04;3.5;;;2.1;;
50651;SDS011;61429;52.086;5.240;2022-07-06T01:45:52;5.3;;;2.4;;
50651;SDS011;61429;52.086;5.240;2022-07-06T01:49:24;3.6;;;2.21;;
50651;SDS011;61429;52.086;5.240;2022-07-06T01:51:11;3.6;;;2.4;;
50651;SDS011;61429;52.086;5.240;2022-07-06T01:52:59;4.3;;;2.31;;
50651;SDS011;61429;52.086;5.240;2022-07-06T01:54:46;3.7;;;2.4;;
50651;SDS011;61429;52.086;5.240;2022-07-06T01:56:32;3.3;;;2.1;;
50651;SDS011;61429;52.086;5.240;2022-07-06T02:00:05;5.0;;;2.4;;
50651;SDS011;61429;52.086;5.240;2022-07-06T02:01:54;4.2;;;2.1;;
50651;SDS011;61429;52.086;5.240;2022-07-06T02:03:41;3.1;;;2.0;;
50651;SDS011;61429;52.086;5.240;2022-07-06T02:05:28;4.0;;;2.31;;
50651;SDS011;61429;52.086;5.240;2022-07-06T02:07:14;4.5;;;2.21;;
50651;SDS011;61429;52.086;5.240;2022-07-06T02:09:00;3.8;;;2.4;;
50651;SDS011;61429;52.086;5.240;2022-07-06T02:12:34;3.7;;;2.1;;
50651;SDS011;61429;52.086;5.240;2022-07-06T02:14:20;4.7;;;2.31;;
50651;SDS011;61429;52.086;5.240;2022-07-06T02:16:06;3.6;;;2.1;;
50651;SDS011;61429;52.086;5.240;2022-07-06T02:17:53;3.8;;;2.21;;
50651;SDS011;61429;52.086;5.240;2022-07-06T02:19:39;3.8;;;2.1;;
50651;SDS011;61429;52.086;5.240;2022-07-06T02:23:12;4.3;;;2.1;;
50651;SDS011;61429;52.086;5.240;2022-07-06T02:24:59;3.5;;;2.21;;
50651;SDS011;61429;52.086;5.240;2022-07-06T02:26:47;4.7;;;2.31;;
50651;SDS011;61429;52.086;5.240;2022-07-06T02:28:33;4.7;;;2.21;;
50651;SDS011;61429;52.086;5.240;2022-07-06T02:30:20;4.0;;;2.0;;
50651;SDS011;61429;52.086;5.240;2022-07-06T02:32:07;4.0;;;1.8;;
50651;SDS011;61429;52.086;5.240;2022-07-06T02:35:42;4.0;;;1.9;;
50651;SDS011;61429;52.086;5.240;2022-07-06T02:37:29;4.0;;;1.9;;
50651;SDS011;61429;52.086;5.240;2022-07-06T02:39:15;4.1;;;2.0;;
50651;SDS011;61429;52.086;5.240;2022-07-06T02:41:01;4.1;;;2.21;;
50651;SDS011;61429;52.086;5.240;2022-07-06T02:42:49;3.5;;;1.9;;
50651;SDS011;61429;52.086;5.240;2022-07-06T02:44:35;3.5;;;1.9;;
50651;SDS011;61429;52.086;5.240;2022-07-06T02:48:07;4.41;;;2.1;;
50651;SDS011;61429;52.086;5.240;2022-07-06T02:49:53;2.5;;;1.9;;
50651;SDS011;61429;52.086;5.240;2022-07-06T02:51:41;4.1;;;2.0;;
50651;SDS011;61429;52.086;5.240;2022-07-06T02:53:27;5.7;;;2.1;;
50651;SDS011;61429;52.086;5.240;2022-07-06T02:55:13;4.3;;;1.9;;
50651;SDS011;61429;52.086;5.240;2022-07-06T02:58:45;3.9;;;2.1;;
50651;SDS011;61429;52.086;5.240;2022-07-06T03:00:32;3.1;;;2.1;;
50651;SDS011;61429;52.086;5.240;2022-07-06T03:02:19;4.61;;;1.9;;
50651;SDS011;61429;52.086;5.240;2022-07-06T03:04:06;3.1;;;2.0;;
50651;SDS011;61429;52.086;5.240;2022-07-06T03:05:52;3.0;;;2.0;;
50651;SDS011;61429;52.086;5.240;2022-07-06T03:07:39;3.7;;;1.9;;
50651;SDS011;61429;52.086;5.240;2022-07-06T03:11:13;3.6;;;2.1;;
50651;SDS011;61429;52.086;5.240;2022-07-06T03:12:59;3.7;;;2.0;;
50651;SDS011;61429;52.086;5.240;2022-07-06T03:14:45;3.1;;;1.9;;
50651;SDS011;61429;52.086;5.240;2022-07-06T03:16:31;2.5;;;2.0;;
50651;SDS011;61429;52.086;5.240;2022-07-06T03:18:18;3.4;;;2.0;;
50651;SDS011;61429;52.086;5.240;2022-07-06T03:20:05;5.11;;;2.0;;
50651;SDS011;61429;52.086;5.240;2022-07-06T03:23:39;3.7;;;2.0;;
50651;SDS011;61429;52.086;5.240;2022-07-06T03:25:25;3.2;;;1.8;;
50651;SDS011;61429;52.086;5.240;2022-07-06T03:27:11;2.9;;;1.9;;
50651;SDS011;61429;52.086;5.240;2022-07-06T03:28:57;3.3;;;1.8;;
50651;SDS011;61429;52.086;5.240;2022-07-06T03:30:44;3.4;;;1.8;;
50651;SDS011;61429;52.086;5.240;2022-07-06T03:34:18;3.1;;;1.8;;
50651;SDS011;61429;52.086;5.240;2022-07-06T03:36:05;3.4;;;1.8;;
50651;SDS011;61429;52.086;5.240;2022-07-06T03:37:52;3.3;;;1.8;;
50651;SDS011;61429;52.086;5.240;2022-07-06T03:39:38;4.0;;;1.8;;
50651;SDS011;61429;52.086;5.240;2022-07-06T03:41:25;2.21;;;1.8;;
50651;SDS011;61429;52.086;5.240;2022-07-06T03:43:11;4.2;;;1.7;;
50651;SDS011;61429;52.086;5.240;2022-07-06T03:46:44;4.1;;;1.9;;
50651;SDS011;61429;52.086;5.240;2022-07-06T03:48:31;3.0;;;1.7;;
50651;SDS011;61429;52.086;5.240;2022-07-06T03:50:18;2.8;;;1.7;;
50651;SDS011;61429;52.086;5.240;2022-07-06T03:52:05;2.7;;;1.8;;
50651;SDS011;61429;52.086;5.240;2022-07-06T03:53:51;5.0;;;2.0;;
50651;SDS011;61429;52.086;5.240;2022-07-06T03:55:37;2.9;;;1.9;;
50651;SDS011;61429;52.086;5.240;2022-07-06T03:59:12;4.91;;;2.0;;
50651;SDS011;61429;52.086;5.240;2022-07-06T04:01:00;2.6;;;1.8;;
50651;SDS011;61429;52.086;5.240;2022-07-06T04:02:46;5.7;;;1.8;;
50651;SDS011;61429;52.086;5.240;2022-07-06T04:04:33;3.7;;;1.7;;
50651;SDS011;61429;52.086;5.240;2022-07-06T04:06:20;2.9;;;1.6;;
50651;SDS011;61429;52.086;5.240;2022-07-06T04:08:07;4.8;;;1.8;;
50651;SDS011;61429;52.086;5.240;2022-07-06T04:11:41;3.7;;;1.6;;
50651;SDS011;61429;52.086;5.240;2022-07-06T04:13:27;3.1;;;1.7;;
50651;SDS011;61429;52.086;5.240;2022-07-06T04:15:13;1.8;;;1.6;;
50651;SDS011;61429;52.086;5.240;2022-07-06T04:17:51;3.2;;;1.7;;
50651;SDS011;61429;52.086;5.240;2022-07-06T04:19:37;3.5;;;2.0;;
50651;SDS011;61429;52.086;5.240;2022-07-06T04:21:24;2.6;;;1.8;;
50651;SDS011;61429;52.086;5.240;2022-07-06T04:23:10;3.4;;;1.8;;
50651;SDS011;61429;52.086;5.240;2022-07-06T04:24:57;3.4;;;1.9;;
50651;SDS011;61429;52.086;5.240;2022-07-06T04:28:29;2.8;;;1.9;;
50651;SDS011;61429;52.086;5.240;2022-07-06T04:30:15;3.6;;;2.1;;
50651;SDS011;61429;52.086;5.240;2022-07-06T04:32:02;4.0;;;2.21;;
50651;SDS011;61429;52.086;5.240;2022-07-06T04:33:49;3.3;;;2.0;;
50651;SDS011;61429;52.086;5.240;2022-07-06T04:35:35;3.4;;;2.0;;
50651;SDS011;61429;52.086;5.240;2022-07-06T04:39:08;4.61;;;2.1;;
50651;SDS011;61429;52.086;5.240;2022-07-06T04:40:55;4.61;;;2.1;;
50651;SDS011;61429;52.086;5.240;2022-07-06T04:42:42;3.3;;;1.8;;
50651;SDS011;61429;52.086;5.240;2022-07-06T04:44:29;4.3;;;1.9;;
50651;SDS011;61429;52.086;5.240;2022-07-06T04:46:16;2.9;;;1.9;;
50651;SDS011;61429;52.086;5.240;2022-07-06T04:48:03;3.7;;;2.0;;
50651;SDS011;61429;52.086;5.240;2022-07-06T04:51:36;3.7;;;2.0;;
50651;SDS011;61429;52.086;5.240;2022-07-06T04:53:23;3.1;;;1.8;;
50651;SDS011;61429;52.086;5.240;2022-07-06T04:55:10;3.6;;;1.9;;
50651;SDS011;61429;52.086;5.240;2022-07-06T04:56:57;4.0;;;2.0;;
50651;SDS011;61429;52.086;5.240;2022-07-06T04:58:43;3.8;;;1.7;;
50651;SDS011;61429;52.086;5.240;2022-07-06T05:00:29;3.9;;;2.4;;
50651;SDS011;61429;52.086;5.240;2022-07-06T05:04:03;3.7;;;1.8;;
50651;SDS011;61429;52.086;5.240;2022-07-06T05:05:50;4.1;;;1.9;;
50651;SDS011;61429;52.086;5.240;2022-07-06T05:07:39;2.7;;;1.7;;
50651;SDS011;61429;52.086;5.240;2022-07-06T05:09:25;2.5;;;1.8;;
50651;SDS011;61429;52.086;5.240;2022-07-06T05:11:12;2.6;;;1.7;;
50651;SDS011;61429;52.086;5.240;2022-07-06T05:14:44;3.8;;;1.8;;
50651;SDS011;61429;52.086;5.240;2022-07-06T05:16:30;2.4;;;1.7;;
50651;SDS011;61429;52.086;5.240;2022-07-06T05:18:16;3.7;;;1.8;;
50651;SDS011;61429;52.086;5.240;2022-07-06T05:20:04;2.1;;;1.7;;
50651;SDS011;61429;52.086;5.240;2022-07-06T05:21:52;3.9;;;2.0;;
50651;SDS011;61429;52.086;5.240;2022-07-06T05:23:38;2.7;;;1.6;;
50651;SDS011;61429;52.086;5.240;2022-07-06T05:27:11;4.41;;;1.8;;
50651;SDS011;61429;52.086;5.240;2022-07-06T05:28:57;2.5;;;1.6;;
50651;SDS011;61429;52.086;5.240;2022-07-06T05:30:43;3.8;;;1.9;;
50651;SDS011;61429;52.086;5.240;2022-07-06T05:32:30;6.1;;;2.4;;
50651;SDS011;61429;52.086;5.240;2022-07-06T05:34:16;3.9;;;2.21;;
50651;SDS011;61429;52.086;5.240;2022-07-06T05:36:03;2.6;;;1.5;;
50651;SDS011;61429;52.086;5.240;2022-07-06T05:39:38;2.5;;;1.7;;
50651;SDS011;61429;52.086;5.240;2022-07-06T05:41:24;4.3;;;1.7;;
50651;SDS011;61429;52.086;5.240;2022-07-06T05:43:11;2.9;;;1.7;;
50651;SDS011;61429;52.086;5.240;2022-07-06T05:44:57;3.3;;;1.5;;
50651;SDS011;61429;52.086;5.240;2022-07-06T05:46:43;2.1;;;1.5;;
50651;SDS011;61429;52.086;5.240;2022-07-06T05:51:33;4.2;;;1.5;;
50651;SDS011;61429;52.086;5.240;2022-07-06T05:53:20;3.3;;;1.5;;
50651;SDS011;61429;52.086;5.240;2022-07-06T05:55:07;4.5;;;1.6;;
50651;SDS011;61429;52.086;5.240;2022-07-06T05:56:54;3.8;;;1.6;;
50651;SDS011;61429;52.086;5.240;2022-07-06T06:00:27;1.9;;;1.4;;
50651;SDS011;61429;52.086;5.240;2022-07-06T06:02:15;3.6;;;1.6;;
50651;SDS011;61429;52.086;5.240;2022-07-06T06:04:02;2.5;;;1.4;;
50651;SDS011;61429;52.086;5.240;2022-07-06T06:05:49;3.1;;;1.5;;
50651;SDS011;61429;52.086;5.240;2022-07-06T06:07:36;2.31;;;1.4;;
50651;SDS011;61429;52.086;5.240;2022-07-06T06:11:09;3.3;;;1.4;;
50651;SDS011;61429;52.086;5.240;2022-07-06T06:12:56;2.4;;;1.3;;
50651;SDS011;61429;52.086;5.240;2022-07-06T06:14:43;2.31;;;1.2;;
50651;SDS011;61429;52.086;5.240;2022-07-06T06:16:30;2.31;;;1.4;;
50651;SDS011;61429;52.086;5.240;2022-07-06T06:18:17;3.4;;;1.7;;
50651;SDS011;61429;52.086;5.240;2022-07-06T06:20:07;3.4;;;1.2;;
50651;SDS011;61429;52.086;5.240;2022-07-06T06:23:42;3.3;;;1.3;;
50651;SDS011;61429;52.086;5.240;2022-07-06T06:25:30;2.9;;;1.4;;
50651;SDS011;61429;52.086;5.240;2022-07-06T06:27:18;3.3;;;1.3;;
50651;SDS011;61429;52.086;5.240;2022-07-06T06:29:05;4.2;;;1.3;;
50651;SDS011;61429;52.086;5.240;2022-07-06T06:30:51;3.2;;;1.3;;
50651;SDS011;61429;52.086;5.240;2022-07-06T06:32:37;4.5;;;1.5;;
50651;SDS011;61429;52.086;5.240;2022-07-06T06:36:11;4.91;;;1.5;;
50651;SDS011;61429;52.086;5.240;2022-07-06T06:37:57;4.8;;;1.4;;
50651;SDS011;61429;52.086;5.240;2022-07-06T06:39:43;4.3;;;1.5;;
50651;SDS011;61429;52.086;5.240;2022-07-06T06:41:30;3.8;;;1.4;;
50651;SDS011;61429;52.086;5.240;2022-07-06T06:43:16;4.7;;;1.2;;
50651;SDS011;61429;52.086;5.240;2022-07-06T06:45:03;3.6;;;1.2;;
50651;SDS011;61429;52.086;5.240;2022-07-06T06:48:37;3.2;;;1.5;;
50651;SDS011;61429;52.086;5.240;2022-07-06T06:50:23;3.3;;;1.2;;
50651;SDS011;61429;52.086;5.240;2022-07-06T06:52:10;4.41;;;1.5;;
50651;SDS011;61429;52.086;5.240;2022-07-06T06:53:56;5.3;;;1.6;;
50651;SDS011;61429;52.086;5.240;2022-07-06T06:55:42;3.8;;;1.3;;
50651;SDS011;61429;52.086;5.240;2022-07-06T06:59:16;3.7;;;1.8;;
50651;SDS011;61429;52.086;5.240;2022-07-06T07:01:04;4.61;;;1.5;;
50651;SDS011;61429;52.086;5.240;2022-07-06T07:02:51;3.3;;;1.2;;
50651;SDS011;61429;52.086;5.240;2022-07-06T07:04:37;4.1;;;1.5;;
50651;SDS011;61429;52.086;5.240;2022-07-06T07:06:24;2.21;;;1.11;;
50651;SDS011;61429;52.086;5.240;2022-07-06T07:08:10;5.11;;;1.4;;
50651;SDS011;61429;52.086;5.240;2022-07-06T07:11:43;2.8;;;1.3;;
50651;SDS011;61429;52.086;5.240;2022-07-06T07:13:29;4.2;;;1.3;;
50651;SDS011;61429;52.086;5.240;2022-07-06T07:15:16;4.61;;;1.5;;
50651;SDS011;61429;52.086;5.240;2022-07-06T07:17:03;5.9;;;1.5;;
50651;SDS011;61429;52.086;5.240;2022-07-06T07:18:50;3.2;;;1.4;;
50651;SDS011;61429;52.086;5.240;2022-07-06T07:20:36;5.0;;;1.6;;
50651;SDS011;61429;52.086;5.240;2022-07-06T07:24:10;5.6;;;1.7;;
50651;SDS011;61429;52.086;5.240;2022-07-06T07:25:56;3.2;;;1.4;;
50651;SDS011;61429;52.086;5.240;2022-07-06T07:27:43;4.3;;;1.8;;
50651;SDS011;61429;52.086;5.240;2022-07-06T07:29:29;4.0;;;1.5;;
50651;SDS011;61429;52.086;5.240;2022-07-06T07:31:15;4.41;;;1.3;;
50651;SDS011;61429;52.086;5.240;2022-07-06T07:34:47;7.0;;;1.3;;
50651;SDS011;61429;52.086;5.240;2022-07-06T07:36:34;4.41;;;1.4;;
50651;SDS011;61429;52.086;5.240;2022-07-06T07:38:20;3.0;;;1.4;;
50651;SDS011;61429;52.086;5.240;2022-07-06T07:40:06;3.5;;;1.3;;
50651;SDS011;61429;52.086;5.240;2022-07-06T07:41:53;4.1;;;1.5;;
50651;SDS011;61429;52.086;5.240;2022-07-06T07:43:39;4.91;;;1.5;;
50651;SDS011;61429;52.086;5.240;2022-07-06T07:47:12;4.3;;;1.5;;
50651;SDS011;61429;52.086;5.240;2022-07-06T07:48:58;2.5;;;1.2;;
50651;SDS011;61429;52.086;5.240;2022-07-06T07:50:45;3.6;;;1.3;;
50651;SDS011;61429;52.086;5.240;2022-07-06T07:52:31;2.5;;;1.11;;
50651;SDS011;61429;52.086;5.240;2022-07-06T07:54:18;3.6;;;1.3;;
50651;SDS011;61429;52.086;5.240;2022-07-06T07:57:52;2.6;;;1.2;;
50651;SDS011;61429;52.086;5.240;2022-07-06T07:59:38;2.1;;;1.2;;
50651;SDS011;61429;52.086;5.240;2022-07-06T08:01:24;3.0;;;1.3;;
50651;SDS011;61429;52.086;5.240;2022-07-06T08:03:11;3.8;;;1.2;;
50651;SDS011;61429;52.086;5.240;2022-07-06T08:04:58;1.9;;;1.0;;
50651;SDS011;61429;52.086;5.240;2022-07-06T08:06:45;2.7;;;1.0;;
50651;SDS011;61429;52.086;5.240;2022-07-06T08:10:18;2.31;;;1.0;;
50651;SDS011;61429;52.086;5.240;2022-07-06T08:12:05;3.2;;;1.2;;
50651;SDS011;61429;52.086;5.240;2022-07-06T08:15:39;3.6;;;1.3;;
50651;SDS011;61429;52.086;5.240;2022-07-06T08:17:27;2.9;;;1.2;;
50651;SDS011;61429;52.086;5.240;2022-07-06T08:19:15;3.3;;;1.2;;
50651;SDS011;61429;52.086;5.240;2022-07-06T08:22:49;3.1;;;1.3;;
50651;SDS011;61429;52.086;5.240;2022-07-06T08:24:35;3.9;;;0.9;;
50651;SDS011;61429;52.086;5.240;2022-07-06T08:26:23;1.7;;;0.9;;
50651;SDS011;61429;52.086;5.240;2022-07-06T08:28:10;2.8;;;1.0;;
50651;SDS011;61429;52.086;5.240;2022-07-06T08:29:56;2.6;;;1.5;;
50651;SDS011;61429;52.086;5.240;2022-07-06T08:31:42;2.1;;;0.9;;
50651;SDS011;61429;52.086;5.240;2022-07-06T08:35:15;1.9;;;1.0;;
50651;SDS011;61429;52.086;5.240;2022-07-06T08:37:03;2.21;;;0.9;;
50651;SDS011;61429;52.086;5.240;2022-07-06T08:38:49;2.4;;;1.2;;
50651;SDS011;61429;52.086;5.240;2022-07-06T08:40:36;2.8;;;1.0;;
50651;SDS011;61429;52.086;5.240;2022-07-06T08:42:29;2.8;;;1.2;;
50651;SDS011;61429;52.086;5.240;2022-07-06T08:44:17;1.9;;;1.11;;
50651;SDS011;61429;52.086;5.240;2022-07-06T08:47:54;1.9;;;1.11;;
50651;SDS011;61429;52.086;5.240;2022-07-06T08:49:44;2.9;;;1.7;;
50651;SDS011;61429;52.086;5.240;2022-07-06T08:51:31;2.1;;;0.8;;
50651;SDS011;61429;52.086;5.240;2022-07-06T08:53:17;1.8;;;0.9;;
50651;SDS011;61429;52.086;5.240;2022-07-06T08:55:04;3.6;;;1.11;;
50651;SDS011;61429;52.086;5.240;2022-07-06T08:56:51;1.2;;;0.6;;
50651;SDS011;61429;52.086;5.240;2022-07-06T09:00:29;2.7;;;0.9;;
50651;SDS011;61429;52.086;5.240;2022-07-06T09:02:18;2.8;;;0.8;;
50651;SDS011;61429;52.086;5.240;2022-07-06T09:04:09;1.7;;;0.9;;
50651;SDS011;61429;52.086;5.240;2022-07-06T09:06:01;2.0;;;0.8;;
50651;SDS011;61429;52.086;5.240;2022-07-06T09:07:49;2.5;;;0.6;;
50651;SDS011;61429;52.086;5.240;2022-07-06T09:09:37;1.5;;;0.7;;
50651;SDS011;61429;52.086;5.240;2022-07-06T09:13:12;2.21;;;0.9;;
50651;SDS011;61429;52.086;5.240;2022-07-06T09:14:58;1.5;;;1.0;;
50651;SDS011;61429;52.086;5.240;2022-07-06T09:16:44;1.6;;;0.8;;
50651;SDS011;61429;52.086;5.240;2022-07-06T09:18:37;2.8;;;1.5;;
50651;SDS011;61429;52.086;5.240;2022-07-06T09:20:25;1.7;;;1.11;;
50651;SDS011;61429;52.086;5.240;2022-07-06T09:22:23;1.7;;;0.9;;
50651;SDS011;61429;52.086;5.240;2022-07-06T09:24:12;2.4;;;0.8;;
50651;SDS011;61429;52.086;5.240;2022-07-06T09:27:50;2.0;;;0.9;;
50651;SDS011;61429;52.086;5.240;2022-07-06T09:29:43;1.2;;;0.8;;
50651;SDS011;61429;52.086;5.240;2022-07-06T09:31:32;1.3;;;0.7;;
50651;SDS011;61429;52.086;5.240;2022-07-06T09:33:18;1.6;;;0.9;;
50651;SDS011;61429;52.086;5.240;2022-07-06T09:35:04;2.5;;;1.2;;
50651;SDS011;61429;52.086;5.240;2022-07-06T09:36:51;2.5;;;1.0;;
50651;SDS011;61429;52.086;5.240;2022-07-06T09:40:25;2.21;;;0.8;;
50651;SDS011;61429;52.086;5.240;2022-07-06T09:42:11;1.7;;;0.7;;
50651;SDS011;61429;52.086;5.240;2022-07-06T09:43:57;1.6;;;1.2;;
50651;SDS011;61429;52.086;5.240;2022-07-06T09:45:44;1.6;;;1.11;;
50651;SDS011;61429;52.086;5.240;2022-07-06T09:47:32;1.2;;;0.8;;
50651;SDS011;61429;52.086;5.240;2022-07-06T09:49:19;1.7;;;1.0;;
50651;SDS011;61429;52.086;5.240;2022-07-06T09:52:55;2.21;;;1.0;;
50651;SDS011;61429;52.086;5.240;2022-07-06T09:54:41;2.4;;;0.8;;
50651;SDS011;61429;52.086;5.240;2022-07-06T09:56:35;1.8;;;0.8;;
50651;SDS011;61429;52.086;5.240;2022-07-06T09:58:22;2.8;;;1.2;;
50651;SDS011;61429;52.086;5.240;2022-07-06T10:00:09;1.7;;;1.4;;
50651;SDS011;61429;52.086;5.240;2022-07-06T10:01:58;1.7;;;1.11;;
50651;SDS011;61429;52.086;5.240;2022-07-06T10:03:46;2.5;;;0.8;;
50651;SDS011;61429;52.086;5.240;2022-07-06T10:07:23;1.2;;;0.8;;
50651;SDS011;61429;52.086;5.240;2022-07-06T10:09:12;2.9;;;0.7;;
50651;SDS011;61429;52.086;5.240;2022-07-06T10:11:00;2.6;;;0.9;;
50651;SDS011;61429;52.086;5.240;2022-07-06T10:12:49;2.31;;;1.0;;
50651;SDS011;61429;52.086;5.240;2022-07-06T10:14:36;2.31;;;1.2;;
50651;SDS011;61429;52.086;5.240;2022-07-06T10:16:25;1.7;;;1.11;;
50651;SDS011;61429;52.086;5.240;2022-07-06T10:19:59;1.4;;;0.9;;
50651;SDS011;61429;52.086;5.240;2022-07-06T10:21:48;3.2;;;0.8;;
50651;SDS011;61429;52.086;5.240;2022-07-06T10:23:36;1.11;;;0.7;;
50651;SDS011;61429;52.086;5.240;2022-07-06T10:25:22;2.0;;;0.8;;
50651;SDS011;61429;52.086;5.240;2022-07-06T10:27:10;2.4;;;1.11;;
50651;SDS011;61429;52.086;5.240;2022-07-06T10:28:59;3.2;;;1.11;;
50651;SDS011;61429;52.086;5.240;2022-07-06T10:32:36;1.5;;;0.9;;
50651;SDS011;61429;52.086;5.240;2022-07-06T10:34:25;1.6;;;0.8;;
50651;SDS011;61429;52.086;5.240;2022-07-06T10:36:12;1.6;;;0.9;;
50651;SDS011;61429;52.086;5.240;2022-07-06T10:42:57;1.2;;;0.7;;
50651;SDS011;61429;52.086;5.240;2022-07-06T10:44:45;2.6;;;0.8;;
50651;SDS011;61429;52.086;5.240;2022-07-06T10:46:32;2.31;;;0.9;;
50651;SDS011;61429;52.086;5.240;2022-07-06T10:48:22;3.2;;;0.9;;
50651;SDS011;61429;52.086;5.240;2022-07-06T10:50:09;2.31;;;1.0;;
50651;SDS011;61429;52.086;5.240;2022-07-06T10:51:57;1.5;;;0.9;;
50651;SDS011;61429;52.086;5.240;2022-07-06T10:55:31;3.7;;;0.9;;
50651;SDS011;61429;52.086;5.240;2022-07-06T10:57:20;2.9;;;0.9;;
50651;SDS011;61429;52.086;5.240;2022-07-06T10:59:08;3.0;;;0.8;;
50651;SDS011;61429;52.086;5.240;2022-07-06T11:00:56;3.7;;;1.0;;
50651;SDS011;61429;52.086;5.240;2022-07-06T11:02:42;2.21;;;1.11;;
50651;SDS011;61429;52.086;5.240;2022-07-06T11:04:31;1.0;;;0.8;;
50651;SDS011;61429;52.086;5.240;2022-07-06T11:08:08;1.7;;;0.9;;
50651;SDS011;61429;52.086;5.240;2022-07-06T11:09:57;1.5;;;1.0;;
50651;SDS011;61429;52.086;5.240;2022-07-06T11:11:48;1.8;;;0.7;;
50651;SDS011;61429;52.086;5.240;2022-07-06T11:13:41;0.9;;;0.8;;
50651;SDS011;61429;52.086;5.240;2022-07-06T11:16:01;2.8;;;1.11;;
50651;SDS011;61429;52.086;5.240;2022-07-06T11:18:18;1.5;;;0.8;;
50651;SDS011;61429;52.086;5.240;2022-07-06T11:20:09;2.8;;;1.2;;
50651;SDS011;61429;52.086;5.240;2022-07-06T11:21:58;1.9;;;1.11;;
50651;SDS011;61429;52.086;5.240;2022-07-06T11:23:52;1.9;;;1.0;;
50651;SDS011;61429;52.086;5.240;2022-07-06T11:25:40;1.5;;;0.9;;
50651;SDS011;61429;52.086;5.240;2022-07-06T11:27:27;2.7;;;1.2;;
50651;SDS011;61429;52.086;5.240;2022-07-06T11:31:01;1.6;;;1.0;;
50651;SDS011;61429;52.086;5.240;2022-07-06T11:32:47;2.8;;;1.5;;
50651;SDS011;61429;52.086;5.240;2022-07-06T11:34:34;4.61;;;1.2;;
50651;SDS011;61429;52.086;5.240;2022-07-06T11:36:23;1.9;;;1.0;;
50651;SDS011;61429;52.086;5.240;2022-07-06T11:38:24;2.0;;;1.0;;
50651;SDS011;61429;52.086;5.240;2022-07-06T11:40:11;2.0;;;1.3;;
50651;SDS011;61429;52.086;5.240;2022-07-06T11:43:51;2.8;;;1.3;;
50651;SDS011;61429;52.086;5.240;2022-07-06T11:45:37;2.4;;;1.3;;
50651;SDS011;61429;52.086;5.240;2022-07-06T11:47:29;1.7;;;0.9;;
50651;SDS011;61429;52.086;5.240;2022-07-06T11:49:17;2.1;;;1.0;;
50651;SDS011;61429;52.086;5.240;2022-07-06T11:51:05;1.8;;;1.0;;
50651;SDS011;61429;52.086;5.240;2022-07-06T11:52:51;2.0;;;1.11;;
50651;SDS011;61429;52.086;5.240;2022-07-06T11:54:38;2.0;;;1.0;;
50651;SDS011;61429;52.086;5.240;2022-07-06T11:58:15;1.11;;;0.7;;
50651;SDS011;61429;52.086;5.240;2022-07-06T12:00:06;3.0;;;1.0;;
50651;SDS011;61429;52.086;5.240;2022-07-06T12:01:58;2.4;;;1.0;;
50651;SDS011;61429;52.086;5.240;2022-07-06T12:03:46;2.1;;;1.0;;
50651;SDS011;61429;52.086;5.240;2022-07-06T12:05:32;4.0;;;1.0;;
50651;SDS011;61429;52.086;5.240;2022-07-06T12:07:19;3.0;;;1.11;;
50651;SDS011;61429;52.086;5.240;2022-07-06T12:10:52;1.5;;;0.9;;
50651;SDS011;61429;52.086;5.240;2022-07-06T12:12:39;2.31;;;2.1;;
50651;SDS011;61429;52.086;5.240;2022-07-06T12:14:25;2.7;;;1.2;;
50651;SDS011;61429;52.086;5.240;2022-07-06T12:16:13;2.7;;;1.3;;
50651;SDS011;61429;52.086;5.240;2022-07-06T12:18:01;2.1;;;0.9;;
50651;SDS011;61429;52.086;5.240;2022-07-06T12:19:51;2.6;;;1.11;;
50651;SDS011;61429;52.086;5.240;2022-07-06T12:23:38;2.6;;;1.0;;
50651;SDS011;61429;52.086;5.240;2022-07-06T12:25:30;3.4;;;1.11;;
50651;SDS011;61429;52.086;5.240;2022-07-06T12:27:18;1.3;;;1.0;;
50651;SDS011;61429;52.086;5.240;2022-07-06T12:29:10;2.1;;;1.11;;
50651;SDS011;61429;52.086;5.240;2022-07-06T12:30:58;2.31;;;1.11;;
50651;SDS011;61429;52.086;5.240;2022-07-06T12:32:44;2.21;;;1.0;;
50651;SDS011;61429;52.086;5.240;2022-07-06T12:34:32;2.6;;;1.11;;
50651;SDS011;61429;52.086;5.240;2022-07-06T12:38:05;2.9;;;1.11;;
50651;SDS011;61429;52.086;5.240;2022-07-06T12:39:51;2.9;;;1.11;;
50651;SDS011;61429;52.086;5.240;2022-07-06T12:41:43;2.6;;;1.3;;
50651;SDS011;61429;52.086;5.240;2022-07-06T12:43:37;2.4;;;1.0;;
50651;SDS011;61429;52.086;5.240;2022-07-06T12:45:26;3.8;;;1.11;;
50651;SDS011;61429;52.086;5.240;2022-07-06T12:47:16;1.7;;;1.11;;
50651;SDS011;61429;52.086;5.240;2022-07-06T12:49:13;2.21;;;1.0;;
50651;SDS011;61429;52.086;5.240;2022-07-06T12:52:47;1.5;;;1.11;;
50651;SDS011;61429;52.086;5.240;2022-07-06T12:54:34;1.9;;;1.3;;
50651;SDS011;61429;52.086;5.240;2022-07-06T12:56:26;2.7;;;1.2;;
50651;SDS011;61429;52.086;5.240;2022-07-06T12:58:17;1.5;;;0.9;;
50651;SDS011;61429;52.086;5.240;2022-07-06T13:00:06;1.3;;;1.0;;
50651;SDS011;61429;52.086;5.240;2022-07-06T13:01:56;3.1;;;1.3;;
50651;SDS011;61429;52.086;5.240;2022-07-06T13:03:42;1.9;;;1.11;;
50651;SDS011;61429;52.086;5.240;2022-07-06T13:07:17;2.1;;;1.11;;